sensor_id;sensor_type;location;lat;lon;timestamp;temperature;humidity
39345;DHT22;25061;51.954;6.996;2022-09-21T05:21:10;15.90;99.90
39345;DHT22;25061;51.954;6.996;2022-09-21T05:23:35;5.20;99.90
39345;DHT22;25061;51.954;6.996;2022-09-21T05:26:01;4.70;99.90
39345;DHT22;25061;51.954;6.996;2022-09-21T05:28:27;4.60;99.90
39345;DHT22;25061;51.954;6.996;2022-09-21T05:30:57;5.30;99.90
39345;DHT22;25061;51.954;6.996;2022-09-21T05:33:25;5.60;99.90
39345;DHT22;25061;51.954;6.996;2022-09-21T05:38:30;5.10;99.90
39345;DHT22;25061;51.954;6.996;2022-09-21T05:40:55;5.20;99.90
39345;DHT22;25061;51.954;6.996;2022-09-21T05:43:21;5.00;99.90
39345;DHT22;25061;51.954;6.996;2022-09-21T05:45:57;5.00;99.90
39345;DHT22;25061;51.954;6.996;2022-09-21T05:48:30;4.90;99.90
39345;DHT22;25061;51.954;6.996;2022-09-21T05:51:13;5.00;99.90
39345;DHT22;25061;51.954;6.996;2022-09-21T05:53:57;5.10;99.90
39345;DHT22;25061;51.954;6.996;2022-09-21T05:56:47;5.10;99.90
39345;DHT22;25061;51.954;6.996;2022-09-21T06:04:20;5.10;99.90
39345;DHT22;25061;51.954;6.996;2022-09-21T06:06:46;5.20;99.90
39345;DHT22;25061;51.954;6.996;2022-09-21T06:09:11;5.30;99.90
39345;DHT22;25061;51.954;6.996;2022-09-21T06:11:37;5.20;99.90
39345;DHT22;25061;51.954;6.996;2022-09-21T06:14:03;5.30;99.90
39345;DHT22;25061;51.954;6.996;2022-09-21T06:16:38;5.30;99.90
39345;DHT22;25061;51.954;6.996;2022-09-21T06:19:04;5.40;99.90
39345;DHT22;25061;51.954;6.996;2022-09-21T06:21:30;5.60;99.90
39345;DHT22;25061;51.954;6.996;2022-09-21T06:23:56;5.60;99.90
39345;DHT22;25061;51.954;6.996;2022-09-21T06:26:21;5.70;99.90
39345;DHT22;25061;51.954;6.996;2022-09-21T06:28:47;5.80;99.90
39345;DHT22;25061;51.954;6.996;2022-09-21T06:31:12;5.90;99.90
39345;DHT22;25061;51.954;6.996;2022-09-21T06:33:38;6.10;99.90
39345;DHT22;25061;51.954;6.996;2022-09-21T06:36:03;6.20;99.90
39345;DHT22;25061;51.954;6.996;2022-09-21T06:38:29;6.30;99.90
39345;DHT22;25061;51.954;6.996;2022-09-21T06:41:00;6.40;99.90
39345;DHT22;25061;51.954;6.996;2022-09-21T06:43:26;6.60;99.90
39345;DHT22;25061;51.954;6.996;2022-09-21T06:45:53;7.10;99.90
39345;DHT22;25061;51.954;6.996;2022-09-21T06:48:20;10.00;99.90
39345;DHT22;25061;51.954;6.996;2022-09-21T06:50:46;12.70;99.90
39345;DHT22;25061;51.954;6.996;2022-09-21T06:53:11;14.30;99.90
39345;DHT22;25061;51.954;6.996;2022-09-21T06:55:39;15.50;99.90
39345;DHT22;25061;51.954;6.996;2022-09-21T06:58:05;16.00;99.90
39345;DHT22;25061;51.954;6.996;2022-09-21T07:00:31;16.40;99.90
39345;DHT22;25061;51.954;6.996;2022-09-21T07:02:56;16.80;99.90
39345;DHT22;25061;51.954;6.996;2022-09-21T07:05:23;17.20;99.90
39345;DHT22;25061;51.954;6.996;2022-09-21T07:07:48;17.50;99.90
39345;DHT22;25061;51.954;6.996;2022-09-21T07:10:15;17.70;99.90
39345;DHT22;25061;51.954;6.996;2022-09-21T07:12:40;15.30;99.90
39345;DHT22;25061;51.954;6.996;2022-09-21T07:15:07;15.00;99.90
39345;DHT22;25061;51.954;6.996;2022-09-21T07:17:34;12.90;99.90
39345;DHT22;25061;51.954;6.996;2022-09-21T07:20:01;12.10;99.90
39345;DHT22;25061;51.954;6.996;2022-09-21T07:22:28;13.20;99.90
39345;DHT22;25061;51.954;6.996;2022-09-21T07:24:54;16.10;99.90
39345;DHT22;25061;51.954;6.996;2022-09-21T07:27:20;15.40;99.90
39345;DHT22;25061;51.954;6.996;2022-09-21T07:29:46;15.50;99.90
39345;DHT22;25061;51.954;6.996;2022-09-21T07:32:12;17.00;99.90
39345;DHT22;25061;51.954;6.996;2022-09-21T07:34:38;15.30;99.90
39345;DHT22;25061;51.954;6.996;2022-09-21T07:37:04;13.00;99.90
39345;DHT22;25061;51.954;6.996;2022-09-21T07:39:29;11.90;99.90
39345;DHT22;25061;51.954;6.996;2022-09-21T07:41:55;11.20;99.90
39345;DHT22;25061;51.954;6.996;2022-09-21T07:44:23;10.90;99.90
39345;DHT22;25061;51.954;6.996;2022-09-21T07:46:49;10.80;99.90
39345;DHT22;25061;51.954;6.996;2022-09-21T07:49:14;10.80;99.90
39345;DHT22;25061;51.954;6.996;2022-09-21T07:51:40;10.70;99.90
39345;DHT22;25061;51.954;6.996;2022-09-21T07:54:07;10.70;99.90
39345;DHT22;25061;51.954;6.996;2022-09-21T07:56:36;10.70;99.90
39345;DHT22;25061;51.954;6.996;2022-09-21T07:59:02;10.80;99.90
39345;DHT22;25061;51.954;6.996;2022-09-21T08:01:32;10.90;99.90
39345;DHT22;25061;51.954;6.996;2022-09-21T08:03:58;10.90;99.90
39345;DHT22;25061;51.954;6.996;2022-09-21T08:06:27;10.70;99.90
39345;DHT22;25061;51.954;6.996;2022-09-21T08:08:53;10.80;99.90
39345;DHT22;25061;51.954;6.996;2022-09-21T08:11:21;10.90;99.90
39345;DHT22;25061;51.954;6.996;2022-09-21T08:13:47;11.10;99.90
39345;DHT22;25061;51.954;6.996;2022-09-21T08:16:13;11.80;99.90
39345;DHT22;25061;51.954;6.996;2022-09-21T08:18:40;12.30;99.90
39345;DHT22;25061;51.954;6.996;2022-09-21T08:21:06;11.90;99.90
39345;DHT22;25061;51.954;6.996;2022-09-21T08:23:33;11.80;99.90
39345;DHT22;25061;51.954;6.996;2022-09-21T08:26:00;11.80;99.90
39345;DHT22;25061;51.954;6.996;2022-09-21T08:28:27;11.70;99.90
39345;DHT22;25061;51.954;6.996;2022-09-21T08:30:53;11.60;99.90
39345;DHT22;25061;51.954;6.996;2022-09-21T08:33:18;11.60;99.90
39345;DHT22;25061;51.954;6.996;2022-09-21T08:35:54;11.60;99.90
39345;DHT22;25061;51.954;6.996;2022-09-21T08:38:20;11.60;99.90
39345;DHT22;25061;51.954;6.996;2022-09-21T08:40:46;11.60;99.90
39345;DHT22;25061;51.954;6.996;2022-09-21T08:43:25;11.70;99.90
39345;DHT22;25061;51.954;6.996;2022-09-21T08:45:54;11.60;99.90
39345;DHT22;25061;51.954;6.996;2022-09-21T08:48:26;11.70;99.90
39345;DHT22;25061;51.954;6.996;2022-09-21T08:50:55;11.80;99.90
39345;DHT22;25061;51.954;6.996;2022-09-21T08:53:30;11.90;99.90
39345;DHT22;25061;51.954;6.996;2022-09-21T08:55:57;11.90;99.90
39345;DHT22;25061;51.954;6.996;2022-09-21T08:58:27;11.90;99.90
39345;DHT22;25061;51.954;6.996;2022-09-21T09:07:00;12.30;99.90
39345;DHT22;25061;51.954;6.996;2022-09-21T09:12:46;13.20;99.90
39345;DHT22;25061;51.954;6.996;2022-09-21T09:18:08;15.10;99.90
39345;DHT22;25061;51.954;6.996;2022-09-21T09:20:39;16.20;99.90
39345;DHT22;25061;51.954;6.996;2022-09-21T09:23:21;17.10;99.90
39345;DHT22;25061;51.954;6.996;2022-09-21T09:25:49;18.00;99.90
39345;DHT22;25061;51.954;6.996;2022-09-21T09:28:28;18.40;99.90
39345;DHT22;25061;51.954;6.996;2022-09-21T09:31:04;19.20;99.90
39345;DHT22;25061;51.954;6.996;2022-09-21T09:34:00;19.30;99.90
39345;DHT22;25061;51.954;6.996;2022-09-21T09:36:29;20.10;99.90
39345;DHT22;25061;51.954;6.996;2022-09-21T09:39:00;20.70;99.90
39345;DHT22;25061;51.954;6.996;2022-09-21T09:41:45;20.60;99.90
39345;DHT22;25061;51.954;6.996;2022-09-21T09:50:37;19.70;99.90
39345;DHT22;25061;51.954;6.996;2022-09-21T09:53:08;20.30;99.90
39345;DHT22;25061;51.954;6.996;2022-09-21T09:55:39;21.50;99.90
39345;DHT22;25061;51.954;6.996;2022-09-21T09:58:21;21.20;99.90
39345;DHT22;25061;51.954;6.996;2022-09-21T10:00:52;20.90;99.90
39345;DHT22;25061;51.954;6.996;2022-09-21T10:03:21;21.70;99.70
39345;DHT22;25061;51.954;6.996;2022-09-21T10:05:47;21.10;99.80
39345;DHT22;25061;51.954;6.996;2022-09-21T10:08:37;21.70;99.30
39345;DHT22;25061;51.954;6.996;2022-09-21T10:11:14;21.40;97.20
39345;DHT22;25061;51.954;6.996;2022-09-21T10:13:46;20.60;98.30
39345;DHT22;25061;51.954;6.996;2022-09-21T10:16:18;21.10;97.30
39345;DHT22;25061;51.954;6.996;2022-09-21T10:18:53;20.90;98.90
39345;DHT22;25061;51.954;6.996;2022-09-21T10:23:56;20.90;99.90
39345;DHT22;25061;51.954;6.996;2022-09-21T10:26:23;22.10;99.00
39345;DHT22;25061;51.954;6.996;2022-09-21T10:29:46;22.50;97.50
39345;DHT22;25061;51.954;6.996;2022-09-21T10:32:15;23.50;95.80
39345;DHT22;25061;51.954;6.996;2022-09-21T10:37:36;23.00;96.90
39345;DHT22;25061;51.954;6.996;2022-09-21T10:40:21;23.50;95.60
39345;DHT22;25061;51.954;6.996;2022-09-21T10:42:48;23.80;94.90
39345;DHT22;25061;51.954;6.996;2022-09-21T10:45:20;23.70;95.00
39345;DHT22;25061;51.954;6.996;2022-09-21T10:47:49;23.70;94.80
39345;DHT22;25061;51.954;6.996;2022-09-21T10:50:36;23.00;95.40
39345;DHT22;25061;51.954;6.996;2022-09-21T10:55:37;23.20;94.90
39345;DHT22;25061;51.954;6.996;2022-09-21T10:58:08;23.70;93.40
39345;DHT22;25061;51.954;6.996;2022-09-21T11:00:41;23.60;92.50
39345;DHT22;25061;51.954;6.996;2022-09-21T11:05:56;24.20;91.80
39345;DHT22;25061;51.954;6.996;2022-09-21T11:08:31;23.70;92.30
39345;DHT22;25061;51.954;6.996;2022-09-21T11:11:38;22.10;93.60
39345;DHT22;25061;51.954;6.996;2022-09-21T11:17:27;20.50;95.90
39345;DHT22;25061;51.954;6.996;2022-09-21T11:22:56;22.70;94.10
39345;DHT22;25061;51.954;6.996;2022-09-21T11:25:33;20.80;95.70
39345;DHT22;25061;51.954;6.996;2022-09-21T11:28:11;19.80;96.20
39345;DHT22;25061;51.954;6.996;2022-09-21T11:44:52;20.20;94.60
39345;DHT22;25061;51.954;6.996;2022-09-21T11:48:21;19.20;94.80
39345;DHT22;25061;51.954;6.996;2022-09-21T11:50:39;19.80;95.40
39345;DHT22;25061;51.954;6.996;2022-09-21T11:56:30;20.40;93.10
39345;DHT22;25061;51.954;6.996;2022-09-21T12:04:41;21.10;95.00
39345;DHT22;25061;51.954;6.996;2022-09-21T12:07:24;22.30;93.70
39345;DHT22;25061;51.954;6.996;2022-09-21T12:10:10;22.30;91.40
39345;DHT22;25061;51.954;6.996;2022-09-21T12:12:53;21.70;92.40
39345;DHT22;25061;51.954;6.996;2022-09-21T12:23:51;21.70;93.50
39345;DHT22;25061;51.954;6.996;2022-09-21T12:26:21;22.00;92.70
39345;DHT22;25061;51.954;6.996;2022-09-21T12:28:52;21.90;93.30
39345;DHT22;25061;51.954;6.996;2022-09-21T12:31:23;22.20;92.50
39345;DHT22;25061;51.954;6.996;2022-09-21T12:34:14;22.70;93.10
39345;DHT22;25061;51.954;6.996;2022-09-21T12:39:45;22.30;92.30
39345;DHT22;25061;51.954;6.996;2022-09-21T12:42:23;22.10;92.50
39345;DHT22;25061;51.954;6.996;2022-09-21T12:48:04;19.90;93.60
39345;DHT22;25061;51.954;6.996;2022-09-21T12:50:45;19.80;94.90
39345;DHT22;25061;51.954;6.996;2022-09-21T12:53:19;19.60;94.90
39345;DHT22;25061;51.954;6.996;2022-09-21T12:55:56;19.20;92.70
39345;DHT22;25061;51.954;6.996;2022-09-21T13:01:41;20.30;93.90
39345;DHT22;25061;51.954;6.996;2022-09-21T13:04:29;19.70;95.00
39345;DHT22;25061;51.954;6.996;2022-09-21T13:09:42;19.70;94.30
39345;DHT22;25061;51.954;6.996;2022-09-21T13:12:25;20.10;94.20
39345;DHT22;25061;51.954;6.996;2022-09-21T13:15:04;20.00;94.10
39345;DHT22;25061;51.954;6.996;2022-09-21T13:17:36;20.00;94.20
39345;DHT22;25061;51.954;6.996;2022-09-21T13:20:18;20.00;93.90
39345;DHT22;25061;51.954;6.996;2022-09-21T13:22:45;20.00;94.00
39345;DHT22;25061;51.954;6.996;2022-09-21T13:25:22;19.60;93.50
39345;DHT22;25061;51.954;6.996;2022-09-21T13:28:19;19.30;93.80
39345;DHT22;25061;51.954;6.996;2022-09-21T13:33:32;18.90;95.70
39345;DHT22;25061;51.954;6.996;2022-09-21T13:36:04;18.50;93.20
39345;DHT22;25061;51.954;6.996;2022-09-21T13:51:53;16.40;97.40
39345;DHT22;25061;51.954;6.996;2022-09-21T13:54:22;16.20;97.70
39345;DHT22;25061;51.954;6.996;2022-09-21T13:57:20;16.20;97.50
39345;DHT22;25061;51.954;6.996;2022-09-21T13:59:46;16.20;96.90
39345;DHT22;25061;51.954;6.996;2022-09-21T14:02:45;16.10;97.20
39345;DHT22;25061;51.954;6.996;2022-09-21T14:08:24;16.20;97.50
39345;DHT22;25061;51.954;6.996;2022-09-21T14:13:45;16.00;97.80
39345;DHT22;25061;51.954;6.996;2022-09-21T14:16:51;15.90;98.10
39345;DHT22;25061;51.954;6.996;2022-09-21T14:24:40;15.30;98.10
39345;DHT22;25061;51.954;6.996;2022-09-21T14:27:22;15.30;97.70
39345;DHT22;25061;51.954;6.996;2022-09-21T14:30:03;15.40;99.30
39345;DHT22;25061;51.954;6.996;2022-09-21T14:32:36;15.40;99.90
39345;DHT22;25061;51.954;6.996;2022-09-21T14:35:11;15.40;99.90
39345;DHT22;25061;51.954;6.996;2022-09-21T14:37:47;15.40;99.70
39345;DHT22;25061;51.954;6.996;2022-09-21T14:40:23;15.30;99.90
39345;DHT22;25061;51.954;6.996;2022-09-21T14:42:51;15.30;99.40
39345;DHT22;25061;51.954;6.996;2022-09-21T14:45:22;15.20;99.60
39345;DHT22;25061;51.954;6.996;2022-09-21T14:48:12;15.20;99.90
39345;DHT22;25061;51.954;6.996;2022-09-21T14:50:57;15.20;99.90
39345;DHT22;25061;51.954;6.996;2022-09-21T14:53:50;15.20;99.90
39345;DHT22;25061;51.954;6.996;2022-09-21T15:04:26;14.90;99.90
39345;DHT22;25061;51.954;6.996;2022-09-21T15:18:32;14.40;99.90
39345;DHT22;25061;51.954;6.996;2022-09-21T15:21:04;14.40;99.90
39345;DHT22;25061;51.954;6.996;2022-09-21T15:23:36;14.40;99.90
39345;DHT22;25061;51.954;6.996;2022-09-21T15:26:08;14.40;99.90
39345;DHT22;25061;51.954;6.996;2022-09-21T15:28:43;14.40;99.90
39345;DHT22;25061;51.954;6.996;2022-09-21T15:31:15;14.40;99.90
39345;DHT22;25061;51.954;6.996;2022-09-21T15:33:42;14.40;99.90
39345;DHT22;25061;51.954;6.996;2022-09-21T15:36:11;14.30;99.90
39345;DHT22;25061;51.954;6.996;2022-09-21T15:38:37;14.30;99.90
39345;DHT22;25061;51.954;6.996;2022-09-21T15:41:04;14.30;99.90
39345;DHT22;25061;51.954;6.996;2022-09-21T15:43:31;14.30;99.90
39345;DHT22;25061;51.954;6.996;2022-09-21T15:46:04;14.30;99.90
39345;DHT22;25061;51.954;6.996;2022-09-21T15:48:48;14.30;99.90
39345;DHT22;25061;51.954;6.996;2022-09-21T15:51:26;14.30;99.90
39345;DHT22;25061;51.954;6.996;2022-09-21T15:54:12;14.30;99.90
39345;DHT22;25061;51.954;6.996;2022-09-21T15:56:42;14.30;99.90
39345;DHT22;25061;51.954;6.996;2022-09-21T15:59:13;14.20;99.90
39345;DHT22;25061;51.954;6.996;2022-09-21T16:01:43;14.20;99.90
39345;DHT22;25061;51.954;6.996;2022-09-21T16:04:16;14.10;99.90
39345;DHT22;25061;51.954;6.996;2022-09-21T16:06:46;14.00;99.90
39345;DHT22;25061;51.954;6.996;2022-09-21T16:11:56;14.00;99.90
39345;DHT22;25061;51.954;6.996;2022-09-21T16:14:22;13.90;99.90
39345;DHT22;25061;51.954;6.996;2022-09-21T16:19:42;14.00;99.90
39345;DHT22;25061;51.954;6.996;2022-09-21T16:22:12;14.10;99.90
39345;DHT22;25061;51.954;6.996;2022-09-21T16:24:48;14.10;99.90
39345;DHT22;25061;51.954;6.996;2022-09-21T16:27:19;14.20;99.90
39345;DHT22;25061;51.954;6.996;2022-09-21T16:29:46;14.10;99.90
39345;DHT22;25061;51.954;6.996;2022-09-21T16:34:51;14.20;99.90
39345;DHT22;25061;51.954;6.996;2022-09-21T16:39:54;14.00;99.90
39345;DHT22;25061;51.954;6.996;2022-09-21T16:42:21;14.00;99.90
39345;DHT22;25061;51.954;6.996;2022-09-21T16:44:47;13.90;99.90
39345;DHT22;25061;51.954;6.996;2022-09-21T16:49:40;13.80;99.90
39345;DHT22;25061;51.954;6.996;2022-09-21T16:52:06;13.70;99.90
39345;DHT22;25061;51.954;6.996;2022-09-21T16:54:32;13.60;99.90
39345;DHT22;25061;51.954;6.996;2022-09-21T16:57:01;13.50;99.90
39345;DHT22;25061;51.954;6.996;2022-09-21T16:59:27;13.40;99.90
39345;DHT22;25061;51.954;6.996;2022-09-21T17:01:55;13.20;99.90
39345;DHT22;25061;51.954;6.996;2022-09-21T17:04:26;13.20;99.90
39345;DHT22;25061;51.954;6.996;2022-09-21T17:06:53;13.20;99.90
39345;DHT22;25061;51.954;6.996;2022-09-21T17:09:30;13.10;99.90
39345;DHT22;25061;51.954;6.996;2022-09-21T17:11:58;13.10;99.90
39345;DHT22;25061;51.954;6.996;2022-09-21T17:14:29;13.10;99.90
39345;DHT22;25061;51.954;6.996;2022-09-21T17:17:00;13.00;99.90
39345;DHT22;25061;51.954;6.996;2022-09-21T17:19:31;12.90;99.90
39345;DHT22;25061;51.954;6.996;2022-09-21T17:21:57;12.60;99.90
39345;DHT22;25061;51.954;6.996;2022-09-21T17:24:24;12.50;99.90
39345;DHT22;25061;51.954;6.996;2022-09-21T17:26:51;12.40;99.90
39345;DHT22;25061;51.954;6.996;2022-09-21T17:29:22;12.20;99.90
39345;DHT22;25061;51.954;6.996;2022-09-21T17:31:50;12.10;99.90
39345;DHT22;25061;51.954;6.996;2022-09-21T17:34:23;11.90;99.90
39345;DHT22;25061;51.954;6.996;2022-09-21T17:36:50;11.90;99.90
39345;DHT22;25061;51.954;6.996;2022-09-21T17:39:16;11.90;99.90
39345;DHT22;25061;51.954;6.996;2022-09-21T17:41:53;11.70;99.90
39345;DHT22;25061;51.954;6.996;2022-09-21T17:49:30;11.50;99.90
39345;DHT22;25061;51.954;6.996;2022-09-21T17:51:56;11.40;99.90
39345;DHT22;25061;51.954;6.996;2022-09-21T17:54:40;11.30;99.90
39345;DHT22;25061;51.954;6.996;2022-09-21T17:57:28;11.30;99.90
39345;DHT22;25061;51.954;6.996;2022-09-21T18:00:03;11.10;99.90
39345;DHT22;25061;51.954;6.996;2022-09-21T18:02:34;11.00;99.90
39345;DHT22;25061;51.954;6.996;2022-09-21T18:05:05;11.00;99.90
39345;DHT22;25061;51.954;6.996;2022-09-21T18:07:34;10.90;99.90
39345;DHT22;25061;51.954;6.996;2022-09-21T18:10:00;10.90;99.90
39345;DHT22;25061;51.954;6.996;2022-09-21T18:18:39;10.80;99.90
39345;DHT22;25061;51.954;6.996;2022-09-21T18:21:19;10.70;99.90
39345;DHT22;25061;51.954;6.996;2022-09-21T18:24:09;10.70;99.90
39345;DHT22;25061;51.954;6.996;2022-09-21T18:26:36;10.70;99.90
39345;DHT22;25061;51.954;6.996;2022-09-21T18:29:03;10.60;99.90
39345;DHT22;25061;51.954;6.996;2022-09-21T18:34:45;10.40;99.90
39345;DHT22;25061;51.954;6.996;2022-09-21T18:37:47;10.40;99.90
39345;DHT22;25061;51.954;6.996;2022-09-21T18:40:27;10.30;99.90
39345;DHT22;25061;51.954;6.996;2022-09-21T18:43:03;10.20;99.90
39345;DHT22;25061;51.954;6.996;2022-09-21T18:45:47;10.20;99.90
39345;DHT22;25061;51.954;6.996;2022-09-21T18:53:56;10.00;99.90
39345;DHT22;25061;51.954;6.996;2022-09-21T18:56:24;10.00;99.90
39345;DHT22;25061;51.954;6.996;2022-09-21T18:58:50;9.90;99.90
39345;DHT22;25061;51.954;6.996;2022-09-21T19:01:16;9.90;99.90
39345;DHT22;25061;51.954;6.996;2022-09-21T19:03:44;9.90;99.90
39345;DHT22;25061;51.954;6.996;2022-09-21T19:06:41;9.90;99.90
39345;DHT22;25061;51.954;6.996;2022-09-21T19:12:24;9.70;99.90
39345;DHT22;25061;51.954;6.996;2022-09-21T19:17:56;9.60;99.90
39345;DHT22;25061;51.954;6.996;2022-09-21T19:23:15;9.60;99.90
39345;DHT22;25061;51.954;6.996;2022-09-21T19:25:52;9.60;99.90
39345;DHT22;25061;51.954;6.996;2022-09-21T19:31:49;9.40;99.90
39345;DHT22;25061;51.954;6.996;2022-09-21T19:34:18;9.40;99.90
39345;DHT22;25061;51.954;6.996;2022-09-21T19:36:45;9.30;99.90
39345;DHT22;25061;51.954;6.996;2022-09-21T19:39:15;9.30;99.90
39345;DHT22;25061;51.954;6.996;2022-09-21T19:41:51;9.20;99.90
39345;DHT22;25061;51.954;6.996;2022-09-21T19:44:46;9.30;99.90
39345;DHT22;25061;51.954;6.996;2022-09-21T19:47:28;9.40;99.90
39345;DHT22;25061;51.954;6.996;2022-09-21T19:50:05;9.10;99.90
39345;DHT22;25061;51.954;6.996;2022-09-21T19:52:35;9.10;99.90
39345;DHT22;25061;51.954;6.996;2022-09-21T19:55:01;9.30;99.90
39345;DHT22;25061;51.954;6.996;2022-09-21T19:57:45;9.20;99.90
39345;DHT22;25061;51.954;6.996;2022-09-21T20:00:30;9.00;99.90
39345;DHT22;25061;51.954;6.996;2022-09-21T20:03:11;8.90;99.90
39345;DHT22;25061;51.954;6.996;2022-09-21T20:06:21;8.80;99.90
39345;DHT22;25061;51.954;6.996;2022-09-21T20:09:23;8.90;99.90
39345;DHT22;25061;51.954;6.996;2022-09-21T20:11:58;8.80;99.90
39345;DHT22;25061;51.954;6.996;2022-09-21T20:17:20;8.80;99.90
39345;DHT22;25061;51.954;6.996;2022-09-21T20:22:42;8.70;99.90
39345;DHT22;25061;51.954;6.996;2022-09-21T20:27:51;8.60;99.90
39345;DHT22;25061;51.954;6.996;2022-09-21T20:30:20;8.60;99.90
39345;DHT22;25061;51.954;6.996;2022-09-21T20:32:51;8.50;99.90
39345;DHT22;25061;51.954;6.996;2022-09-21T20:35:26;8.50;99.90
39345;DHT22;25061;51.954;6.996;2022-09-21T20:37:52;8.50;99.90
39345;DHT22;25061;51.954;6.996;2022-09-21T20:40:19;8.50;99.90
39345;DHT22;25061;51.954;6.996;2022-09-21T20:42:48;8.50;99.90
39345;DHT22;25061;51.954;6.996;2022-09-21T20:45:14;8.50;99.90
39345;DHT22;25061;51.954;6.996;2022-09-21T20:47:39;8.40;99.90
39345;DHT22;25061;51.954;6.996;2022-09-21T20:50:06;8.30;99.90
39345;DHT22;25061;51.954;6.996;2022-09-21T20:52:36;8.30;99.90
39345;DHT22;25061;51.954;6.996;2022-09-21T20:55:02;8.20;99.90
39345;DHT22;25061;51.954;6.996;2022-09-21T20:57:28;8.10;99.90
39345;DHT22;25061;51.954;6.996;2022-09-21T20:59:53;8.20;99.90
39345;DHT22;25061;51.954;6.996;2022-09-21T21:02:19;8.20;99.90
39345;DHT22;25061;51.954;6.996;2022-09-21T21:04:44;8.20;99.90
39345;DHT22;25061;51.954;6.996;2022-09-21T21:07:10;8.20;99.90
39345;DHT22;25061;51.954;6.996;2022-09-21T21:09:36;8.20;99.90
39345;DHT22;25061;51.954;6.996;2022-09-21T21:12:01;8.10;99.90
39345;DHT22;25061;51.954;6.996;2022-09-21T21:14:27;8.00;99.90
39345;DHT22;25061;51.954;6.996;2022-09-21T21:16:54;8.00;99.90
39345;DHT22;25061;51.954;6.996;2022-09-21T21:19:20;8.00;99.90
39345;DHT22;25061;51.954;6.996;2022-09-21T21:21:45;8.00;99.90
39345;DHT22;25061;51.954;6.996;2022-09-21T21:24:11;7.90;99.90
39345;DHT22;25061;51.954;6.996;2022-09-21T21:27:02;7.90;99.90
39345;DHT22;25061;51.954;6.996;2022-09-21T21:29:29;7.90;99.90
39345;DHT22;25061;51.954;6.996;2022-09-21T21:31:54;7.90;99.90
39345;DHT22;25061;51.954;6.996;2022-09-21T21:34:20;7.90;99.90
39345;DHT22;25061;51.954;6.996;2022-09-21T21:36:45;7.90;99.90
39345;DHT22;25061;51.954;6.996;2022-09-21T21:39:11;7.90;99.90
39345;DHT22;25061;51.954;6.996;2022-09-21T21:41:36;7.90;99.90
39345;DHT22;25061;51.954;6.996;2022-09-21T21:44:02;7.80;99.90
39345;DHT22;25061;51.954;6.996;2022-09-21T21:46:28;7.80;99.90
39345;DHT22;25061;51.954;6.996;2022-09-21T21:48:54;7.70;99.90
39345;DHT22;25061;51.954;6.996;2022-09-21T21:51:19;7.70;99.90
39345;DHT22;25061;51.954;6.996;2022-09-21T21:53:45;7.70;99.90
39345;DHT22;25061;51.954;6.996;2022-09-21T21:56:13;7.70;99.90
39345;DHT22;25061;51.954;6.996;2022-09-21T21:58:39;7.60;99.90
39345;DHT22;25061;51.954;6.996;2022-09-21T22:01:07;7.60;99.90
39345;DHT22;25061;51.954;6.996;2022-09-21T22:03:33;7.50;99.90
39345;DHT22;25061;51.954;6.996;2022-09-21T22:05:58;7.50;99.90
39345;DHT22;25061;51.954;6.996;2022-09-21T22:08:24;7.60;99.90
39345;DHT22;25061;51.954;6.996;2022-09-21T22:10:53;7.50;99.90
39345;DHT22;25061;51.954;6.996;2022-09-21T22:13:18;7.40;99.90
39345;DHT22;25061;51.954;6.996;2022-09-21T22:15:44;7.40;99.90
39345;DHT22;25061;51.954;6.996;2022-09-21T22:18:10;7.40;99.90
39345;DHT22;25061;51.954;6.996;2022-09-21T22:20:36;7.50;99.90
39345;DHT22;25061;51.954;6.996;2022-09-21T22:23:02;7.30;99.90
39345;DHT22;25061;51.954;6.996;2022-09-21T22:25:28;7.30;99.90
39345;DHT22;25061;51.954;6.996;2022-09-21T22:27:54;7.30;99.90
39345;DHT22;25061;51.954;6.996;2022-09-21T22:30:19;7.20;99.90
39345;DHT22;25061;51.954;6.996;2022-09-21T22:32:45;7.20;99.90
39345;DHT22;25061;51.954;6.996;2022-09-21T22:35:10;7.20;99.90
39345;DHT22;25061;51.954;6.996;2022-09-21T22:37:36;7.30;99.90
39345;DHT22;25061;51.954;6.996;2022-09-21T22:40:02;7.30;99.90
39345;DHT22;25061;51.954;6.996;2022-09-21T22:42:27;7.30;99.90
39345;DHT22;25061;51.954;6.996;2022-09-21T22:44:53;7.40;99.90
39345;DHT22;25061;51.954;6.996;2022-09-21T22:47:19;7.20;99.90
39345;DHT22;25061;51.954;6.996;2022-09-21T22:49:44;7.30;99.90
39345;DHT22;25061;51.954;6.996;2022-09-21T22:52:10;7.20;99.90
39345;DHT22;25061;51.954;6.996;2022-09-21T22:54:35;7.10;99.90
39345;DHT22;25061;51.954;6.996;2022-09-21T22:57:01;7.10;99.90
39345;DHT22;25061;51.954;6.996;2022-09-21T22:59:26;7.10;99.90
39345;DHT22;25061;51.954;6.996;2022-09-21T23:01:52;7.10;99.90
39345;DHT22;25061;51.954;6.996;2022-09-21T23:04:17;7.10;99.90
39345;DHT22;25061;51.954;6.996;2022-09-21T23:06:44;7.10;99.90
39345;DHT22;25061;51.954;6.996;2022-09-21T23:09:15;7.10;99.90
39345;DHT22;25061;51.954;6.996;2022-09-21T23:11:42;7.00;99.90
39345;DHT22;25061;51.954;6.996;2022-09-21T23:14:10;7.10;99.90
39345;DHT22;25061;51.954;6.996;2022-09-21T23:16:37;7.00;99.90
39345;DHT22;25061;51.954;6.996;2022-09-21T23:19:02;6.90;99.90
39345;DHT22;25061;51.954;6.996;2022-09-21T23:21:29;6.90;99.90
39345;DHT22;25061;51.954;6.996;2022-09-21T23:23:57;6.90;99.90
39345;DHT22;25061;51.954;6.996;2022-09-21T23:26:24;6.90;99.90
39345;DHT22;25061;51.954;6.996;2022-09-21T23:28:53;6.90;99.90
39345;DHT22;25061;51.954;6.996;2022-09-21T23:31:19;6.80;99.90
39345;DHT22;25061;51.954;6.996;2022-09-21T23:33:48;6.70;99.90
39345;DHT22;25061;51.954;6.996;2022-09-21T23:36:16;6.60;99.90
39345;DHT22;25061;51.954;6.996;2022-09-21T23:38:42;6.70;99.90
39345;DHT22;25061;51.954;6.996;2022-09-21T23:41:18;6.80;99.90
39345;DHT22;25061;51.954;6.996;2022-09-21T23:43:45;6.70;99.90
39345;DHT22;25061;51.954;6.996;2022-09-21T23:46:13;6.80;99.90
39345;DHT22;25061;51.954;6.996;2022-09-21T23:48:39;6.80;99.90
39345;DHT22;25061;51.954;6.996;2022-09-21T23:51:05;6.80;99.90
39345;DHT22;25061;51.954;6.996;2022-09-21T23:53:31;6.70;99.90
39345;DHT22;25061;51.954;6.996;2022-09-21T23:55:56;6.70;99.90
39345;DHT22;25061;51.954;6.996;2022-09-21T23:58:23;6.70;99.90
